Skip Navigation Links Skip Navigation Links

Current Weather

Morris Muni - James R. Washburn Field, Morris, Ill.

For information only: do not use for flight planning or navigation.
Latest weather
Observation time Wednesday, October 27, 2021 2:35 AM CDT
Local time Wednesday, October 27, 2021 2:52 AM CDT
Flight conditions Visual Meteorological Conditions
Winds
Wind speed calm
Visibility 7 mi.
Sky condition
Ceiling unlimited
Sky clear
Temperature 38°F
Dewpoint 38°F
Altimeter 30.01 in.Hg
Derived measurements
Relative humidity 100%
Wind chill 38°F
Density altitude -785 ft.
Remarks
Fully automated report.
Automated weather observing station with precipitation discriminator.
METAR KC09 270735Z AUTO 00000KT 7SM CLR 04/04 A3001 RMK AO2 T00360036

Settings

Location code

InnerDrive.Weather 4.0.6770.0 Release CLR 4.0.30319.42000
Copyright ©2018 Inner Drive Technology. All rights reserved. Portions Copyright ©1986-2018 David Braverman.

Find weather

Site navigation


Skip Navigation Links

Place info

Page info

PayPal - The safer, easier way to pay online!

Return home.

Copyright ©2021 Inner Drive Technology. Purveyors of fine, hand-crafted computer software. Page printed 2021-10-27T07:52:34 UTC.